Time;durP1;ratioP1;P1;durP2;ratioP2;P2;SDS_P1;SDS_P2;PMS_P1;PMS_P2;Temp;Humidity;BMP_temperature;BMP_pressure;BME280_temperature;BME280_humidity;BME280_pressure;Samples;Min_cycle;Max_cycle;Signal;HPM_P1;HPM_P2
2021/04/26 00:02:01;;;;;;;4.60;3.30;;;7.50;41.50;;;;;;5078052;28;20225;-85
2021/04/26 00:04:27;;;;;;;10.17;3.83;;;7.50;41.70;;;;;;5085543;28;20217;-85
2021/04/26 00:06:53;;;;;;;5.80;3.73;;;7.40;42.00;;;;;;5082090;28;20960;-85
2021/04/26 00:09:20;;;;;;;5.20;4.10;;;7.40;42.00;;;;;;5086109;28;20199;-86
2021/04/26 00:11:46;;;;;;;8.00;4.10;;;7.40;43.40;;;;;;5071881;28;20190;-85
2021/04/26 00:14:13;;;;;;;5.63;3.70;;;7.40;42.70;;;;;;5078797;28;20220;-84
2021/04/26 00:16:40;;;;;;;6.97;3.73;;;7.30;43.20;;;;;;5077319;28;20205;-85
2021/04/26 00:19:06;;;;;;;6.67;3.70;;;7.30;43.60;;;;;;5079991;28;20193;-87
2021/04/26 00:21:32;;;;;;;8.33;3.70;;;7.20;44.10;;;;;;5076900;28;20212;-85
2021/04/26 00:23:59;;;;;;;6.77;3.70;;;7.20;44.60;;;;;;5082702;28;20226;-85
2021/04/26 00:26:25;;;;;;;6.13;4.10;;;7.10;45.00;;;;;;5077732;28;20209;-85
2021/04/26 00:28:52;;;;;;;7.80;3.70;;;7.10;44.80;;;;;;5070059;28;20283;-83
2021/04/26 00:31:18;;;;;;;5.07;3.53;;;7.00;45.00;;;;;;5079246;28;20204;-87
2021/04/26 00:33:45;;;;;;;5.73;3.90;;;7.00;45.70;;;;;;5089625;28;20229;-84
2021/04/26 00:36:12;;;;;;;7.83;3.53;;;7.00;45.90;;;;;;5074865;28;20209;-83
2021/04/26 00:38:38;;;;;;;6.80;3.63;;;6.90;45.80;;;;;;5082378;28;20220;-83
2021/04/26 00:41:04;;;;;;;8.10;3.70;;;6.90;45.80;;;;;;5087471;28;20200;-83
2021/04/26 00:43:31;;;;;;;6.40;3.60;;;6.80;45.70;;;;;;5090680;28;20235;-82
2021/04/26 00:45:57;;;;;;;4.90;3.63;;;6.70;45.70;;;;;;5089284;28;20655;-87
2021/04/26 00:48:23;;;;;;;6.17;3.47;;;6.60;45.60;;;;;;5070865;28;20304;-85
2021/04/26 00:50:51;;;;;;;6.97;3.97;;;6.60;45.60;;;;;;5076381;28;20251;-83
2021/04/26 00:53:17;;;;;;;6.10;4.10;;;6.50;45.60;;;;;;5073506;28;20262;-85
2021/04/26 00:55:44;;;;;;;6.60;3.97;;;6.50;45.50;;;;;;5072586;28;20198;-83
2021/04/26 00:58:10;;;;;;;7.57;4.33;;;6.40;45.90;;;;;;5077858;28;20612;-83
2021/04/26 01:00:37;;;;;;;6.33;3.87;;;6.30;46.90;;;;;;5076238;28;20561;-83
2021/04/26 01:03:04;;;;;;;5.67;3.90;;;6.20;48.20;;;;;;5071522;28;20213;-85
2021/04/26 01:05:34;;;;;;;7.30;4.00;;;6.10;48.10;;;;;;5071707;28;20225;-85
2021/04/26 01:08:02;;;;;;;6.03;4.03;;;6.00;49.40;;;;;;5065126;28;20217;-83
2021/04/26 01:10:31;;;;;;;7.10;4.03;;;5.90;49.70;;;;;;5086326;28;20201;-83
2021/04/26 01:13:37;;;;;;;5.07;4.07;;;5.90;51.60;;;;;;5076230;28;20241;-83
2021/04/26 01:16:12;;;;;;;9.00;4.47;;;5.90;50.70;;;;;;5063840;28;20205;-83
2021/04/26 01:18:53;;;;;;;5.53;4.33;;;5.80;50.80;;;;;;5078272;28;20273;-83
2021/04/26 01:21:56;;;;;;;8.73;4.30;;;5.80;50.90;;;;;;5075038;28;20194;-82
2021/04/26 01:24:46;;;;;;;6.63;3.90;;;5.80;51.50;;;;;;5085629;28;20220;-85
2021/04/26 01:27:23;;;;;;;6.43;3.90;;;5.80;51.80;;;;;;5073962;28;20225;-82
2021/04/26 01:30:05;;;;;;;5.67;4.00;;;5.70;52.30;;;;;;5074171;28;20664;-84
2021/04/26 01:32:37;;;;;;;9.70;3.97;;;5.70;53.20;;;;;;5078543;28;20286;-82
2021/04/26 01:35:06;;;;;;;8.13;4.30;;;5.60;54.00;;;;;;5076113;28;20598;-83
2021/04/26 01:37:36;;;;;;;6.37;4.37;;;5.60;54.00;;;;;;5073269;28;20476;-82
2021/04/26 01:40:05;;;;;;;8.63;4.00;;;5.60;54.60;;;;;;5068522;28;20205;-82
2021/04/26 01:42:33;;;;;;;6.13;4.00;;;5.50;55.00;;;;;;5077726;28;20229;-83
2021/04/26 01:45:01;;;;;;;6.30;4.40;;;5.50;55.80;;;;;;5077961;28;20243;-85
2021/04/26 01:47:28;;;;;;;7.97;4.23;;;5.40;57.00;;;;;;5081442;28;20278;-82
2021/04/26 01:49:55;;;;;;;5.83;3.80;;;5.40;56.40;;;;;;5073939;28;20193;-82
2021/04/26 01:52:22;;;;;;;5.63;3.93;;;5.40;56.10;;;;;;5076468;28;20217;-85
2021/04/26 01:54:50;;;;;;;7.03;4.97;;;5.40;56.20;;;;;;5067909;28;20273;-82
2021/04/26 01:57:17;;;;;;;7.57;4.57;;;5.40;56.50;;;;;;5073351;28;20229;-83
2021/04/26 01:59:43;;;;;;;4.90;4.00;;;5.30;56.90;;;;;;5081259;28;20548;-85
2021/04/26 02:02:10;;;;;;;4.07;3.67;;;5.30;58.30;;;;;;5080467;28;20224;-82
2021/04/26 02:04:39;;;;;;;5.37;3.73;;;5.30;56.70;;;;;;5066539;28;20233;-84
2021/04/26 02:07:07;;;;;;;5.33;4.10;;;5.30;56.80;;;;;;5081981;28;20243;-82
2021/04/26 02:09:38;;;;;;;6.83;4.63;;;5.20;57.10;;;;;;5079891;28;20215;-82
2021/04/26 02:12:06;;;;;;;5.47;3.90;;;5.20;57.10;;;;;;5066574;28;20225;-83
2021/04/26 02:14:33;;;;;;;9.20;4.00;;;5.20;57.50;;;;;;5073247;28;20205;-83
2021/04/26 02:17:00;;;;;;;7.33;4.50;;;5.20;57.60;;;;;;5084641;28;20189;-82
2021/04/26 02:19:26;;;;;;;5.93;4.20;;;5.10;57.80;;;;;;5080180;28;20700;-82
2021/04/26 02:21:52;;;;;;;6.23;3.90;;;5.10;58.60;;;;;;5078691;28;20193;-82
2021/04/26 02:24:19;;;;;;;6.90;4.10;;;5.00;58.30;;;;;;5076271;28;20274;-82
2021/04/26 02:26:45;;;;;;;7.37;4.10;;;5.00;58.50;;;;;;5086721;28;20200;-82
2021/04/26 02:29:12;;;;;;;5.80;4.00;;;5.00;58.40;;;;;;5084909;28;20213;-82
2021/04/26 02:31:41;;;;;;;7.13;4.03;;;5.00;58.40;;;;;;5081504;28;20200;-83
2021/04/26 02:34:12;;;;;;;7.23;4.43;;;5.00;58.70;;;;;;5062450;28;20661;-84
2021/04/26 02:36:44;;;;;;;7.17;4.27;;;5.00;59.20;;;;;;5067960;28;20205;-85
2021/04/26 02:39:13;;;;;;;6.73;4.23;;;4.90;60.00;;;;;;5063740;28;20659;-82
2021/04/26 02:41:43;;;;;;;8.37;4.07;;;4.90;60.70;;;;;;5080864;28;20197;-82
2021/04/26 02:44:15;;;;;;;5.10;3.80;;;4.90;60.50;;;;;;5077614;28;20237;-85
2021/04/26 02:46:43;;;;;;;7.50;4.40;;;4.90;60.20;;;;;;5069644;28;20189;-82
2021/04/26 02:49:10;;;;;;;4.87;4.20;;;4.90;60.00;;;;;;5082779;28;20203;-87
2021/04/26 02:51:38;;;;;;;7.40;4.40;;;4.80;60.00;;;;;;5075298;28;20658;-83
2021/04/26 02:54:07;;;;;;;5.77;4.00;;;4.80;62.90;;;;;;5075193;28;20236;-84
2021/04/26 02:56:36;;;;;;;6.03;4.33;;;4.80;61.10;;;;;;5074762;28;20659;-83
2021/04/26 02:59:07;;;;;;;9.93;4.50;;;4.80;61.80;;;;;;5075894;28;20233;-84
2021/04/26 03:01:34;;;;;;;8.77;4.90;;;4.80;62.30;;;;;;5072985;28;20200;-82
2021/04/26 03:04:01;;;;;;;9.40;4.43;;;4.80;62.90;;;;;;5080932;28;20232;-83
2021/04/26 03:06:28;;;;;;;7.80;4.50;;;4.70;62.70;;;;;;5073483;28;20193;-82
2021/04/26 03:08:57;;;;;;;8.27;4.10;;;4.70;62.90;;;;;;5074310;28;20699;-82
2021/04/26 03:11:26;;;;;;;8.63;4.30;;;4.60;63.20;;;;;;5077781;28;20270;-82
2021/04/26 03:13:53;;;;;;;7.57;4.30;;;4.60;62.90;;;;;;5068243;28;20236;-82
2021/04/26 03:16:20;;;;;;;8.60;4.70;;;4.60;63.00;;;;;;5072021;28;20648;-84
2021/04/26 03:18:47;;;;;;;8.57;4.60;;;4.60;63.00;;;;;;5071718;28;20227;-82
2021/04/26 03:21:14;;;;;;;8.97;4.73;;;4.60;63.00;;;;;;5076949;28;20202;-83
2021/04/26 03:23:43;;;;;;;6.53;4.63;;;4.60;63.20;;;;;;5068274;28;20228;-82
2021/04/26 03:26:10;;;;;;;6.87;4.53;;;4.50;63.80;;;;;;5082465;28;20193;-83
2021/04/26 03:28:42;;;;;;;6.60;4.60;;;4.50;64.10;;;;;;5062508;28;20232;-82
2021/04/26 03:31:09;;;;;;;8.00;4.87;;;4.40;64.80;;;;;;5083362;28;20190;-82
2021/04/26 03:33:36;;;;;;;9.53;4.63;;;4.50;65.00;;;;;;5078159;28;20282;-82
2021/04/26 03:36:05;;;;;;;6.80;4.50;;;4.40;65.00;;;;;;5085919;28;20209;-82
2021/04/26 03:38:33;;;;;;;6.40;4.63;;;4.40;65.20;;;;;;5071869;28;20229;-82
2021/04/26 03:41:00;;;;;;;8.70;4.47;;;4.50;65.90;;;;;;5073667;28;20206;-83
2021/04/26 03:43:26;;;;;;;6.40;4.40;;;4.40;65.30;;;;;;5072096;28;20232;-83
2021/04/26 03:45:56;;;;;;;6.60;4.20;;;4.40;66.60;;;;;;5077537;28;20208;-85
2021/04/26 03:48:22;;;;;;;10.77;4.40;;;4.40;66.60;;;;;;5075733;28;20359;-83
2021/04/26 03:50:49;;;;;;;7.87;5.10;;;4.30;67.50;;;;;;5083828;28;20197;-83
2021/04/26 03:53:16;;;;;;;6.30;4.47;;;4.30;66.70;;;;;;5078770;28;20674;-84
2021/04/26 03:55:42;;;;;;;7.70;4.60;;;4.40;66.70;;;;;;5083870;28;20249;-82
2021/04/26 03:58:09;;;;;;;7.43;4.93;;;4.40;66.30;;;;;;5079021;28;20233;-83
2021/04/26 04:00:35;;;;;;;8.20;5.00;;;4.40;68.30;;;;;;5082237;28;20201;-83
2021/04/26 04:03:05;;;;;;;8.77;4.93;;;4.30;68.80;;;;;;5079373;28;20270;-82
2021/04/26 04:05:32;;;;;;;8.83;4.40;;;4.30;68.90;;;;;;5091653;28;20279;-83
2021/04/26 04:08:00;;;;;;;14.33;4.80;;;4.20;68.90;;;;;;5086952;28;20216;-80
2021/04/26 04:10:27;;;;;;;9.33;5.03;;;4.20;68.90;;;;;;5069842;28;20247;-82
2021/04/26 04:12:53;;;;;;;7.67;4.73;;;4.20;68.90;;;;;;5075151;28;20224;-81
2021/04/26 04:15:19;;;;;;;8.60;5.13;;;4.20;68.90;;;;;;5070767;28;20543;-86
2021/04/26 04:17:45;;;;;;;9.70;4.90;;;4.20;68.90;;;;;;5081682;28;20221;-82
2021/04/26 04:20:13;;;;;;;8.80;4.80;;;4.20;68.90;;;;;;5075773;28;20201;-85
2021/04/26 04:22:40;;;;;;;7.73;5.20;;;4.20;69.00;;;;;;5082622;28;20227;-85
2021/04/26 04:25:09;;;;;;;7.27;4.67;;;4.30;68.10;;;;;;5086140;28;20287;-81
2021/04/26 04:27:36;;;;;;;6.53;4.73;;;4.30;67.20;;;;;;5089602;28;20225;-84
2021/04/26 04:30:04;;;;;;;6.97;4.87;;;4.40;65.40;;;;;;5096563;28;20225;-84
2021/04/26 04:32:31;;;;;;;8.00;5.00;;;4.40;65.40;;;;;;5100219;28;20220;-82
2021/04/26 04:34:57;;;;;;;8.10;5.27;;;4.40;65.00;;;;;;5085592;28;20274;-81
2021/04/26 04:37:23;;;;;;;8.27;5.10;;;4.50;65.50;;;;;;5082479;28;20233;-83
2021/04/26 04:39:50;;;;;;;7.13;4.90;;;4.60;64.70;;;;;;5073897;28;20204;-81
2021/04/26 04:42:17;;;;;;;8.37;4.90;;;4.60;63.00;;;;;;5082666;28;20224;-87
2021/04/26 04:44:43;;;;;;;7.87;5.23;;;4.60;62.70;;;;;;5079106;28;20220;-81
2021/04/26 04:47:09;;;;;;;11.90;5.20;;;4.70;62.40;;;;;;5080386;28;20221;-82
2021/04/26 04:49:36;;;;;;;10.77;5.63;;;4.80;61.50;;;;;;5071633;28;20890;-90
2021/04/26 04:52:04;;;;;;;10.73;5.30;;;4.80;62.00;;;;;;5067193;28;20240;-82
2021/04/26 04:54:30;;;;;;;9.50;5.20;;;4.80;61.50;;;;;;5083615;28;20200;-81
2021/04/26 04:56:56;;;;;;;7.37;5.13;;;4.90;60.60;;;;;;5073083;28;20593;-81
2021/04/26 04:59:24;;;;;;;6.20;5.17;;;4.90;59.50;;;;;;5092521;28;20569;-83
2021/04/26 05:01:51;;;;;;;8.93;4.87;;;5.00;59.50;;;;;;5078800;28;20211;-81
2021/04/26 05:04:17;;;;;;;7.30;5.10;;;5.10;59.00;;;;;;5089014;28;20224;-84
2021/04/26 05:06:43;;;;;;;11.00;5.23;;;5.20;58.30;;;;;;5082668;28;20197;-83
2021/04/26 05:09:10;;;;;;;10.50;5.10;;;5.20;58.40;;;;;;5088372;28;20223;-82
2021/04/26 05:11:37;;;;;;;9.37;5.30;;;5.30;58.60;;;;;;5079560;28;20200;-82
2021/04/26 05:14:03;;;;;;;7.93;5.03;;;5.40;56.90;;;;;;5081496;28;20256;-84
2021/04/26 05:16:32;;;;;;;7.30;4.93;;;5.40;56.40;;;;;;5081609;28;20196;-81
2021/04/26 05:19:00;;;;;;;7.37;4.50;;;5.40;56.20;;;;;;5085083;28;20236;-85
2021/04/26 05:21:27;;;;;;;8.57;5.07;;;5.50;56.60;;;;;;5067576;28;20198;-83
2021/04/26 05:23:54;;;;;;;7.17;4.50;;;5.60;55.00;;;;;;5072309;28;20232;-81
2021/04/26 05:26:21;;;;;;;7.03;4.43;;;5.60;54.60;;;;;;5070963;28;20200;-82
2021/04/26 05:28:47;;;;;;;7.33;4.80;;;5.60;53.80;;;;;;5087261;28;20266;-81
2021/04/26 05:31:13;;;;;;;9.83;4.67;;;5.60;54.80;;;;;;5065599;28;20558;-82
2021/04/26 05:33:40;;;;;;;7.73;4.67;;;5.70;53.80;;;;;;5080106;28;20223;-87
2021/04/26 05:36:07;;;;;;;8.77;5.07;;;5.90;52.80;;;;;;5071838;28;20263;-84
2021/04/26 05:38:33;;;;;;;11.57;4.73;;;6.00;55.40;;;;;;5077154;28;20302;-85
2021/04/26 05:41:00;;;;;;;6.67;4.83;;;6.40;51.50;;;;;;5075510;28;20208;-85
2021/04/26 05:43:26;;;;;;;7.70;4.53;;;6.90;48.40;;;;;;5071720;28;20255;-88
2021/04/26 05:45:52;;;;;;;6.10;4.90;;;7.30;46.20;;;;;;5059350;28;20226;-88
2021/04/26 05:48:19;;;;;;;7.00;4.70;;;7.70;46.50;;;;;;5067270;28;20233;-88
2021/04/26 05:50:46;;;;;;;7.67;4.50;;;8.50;42.50;;;;;;5069897;28;20197;-86
2021/04/26 05:53:12;;;;;;;7.33;4.47;;;9.00;41.90;;;;;;5072501;28;20217;-86
2021/04/26 05:55:39;;;;;;;7.57;4.47;;;9.20;40.70;;;;;;5084023;28;20261;-85
2021/04/26 05:58:37;;;;;;;9.07;3.88;;;9.10;39.30;;;;;;5081459;28;20233;-83
2021/04/26 06:01:41;;;;;;;6.13;3.97;;;9.30;39.20;;;;;;5074147;28;20226;-85
2021/04/26 06:08:22;;;;;;;11.57;4.43;;;8.70;40.70;;;;;;5066335;28;20220;-85
2021/04/26 06:10:49;;;;;;;9.77;4.30;;;8.90;40.10;;;;;;5055777;28;20259;-85
2021/04/26 06:13:16;;;;;;;11.48;4.53;;;8.70;40.70;;;;;;5066877;28;20288;-84
2021/04/26 06:19:29;;;;;;;7.00;4.00;;;9.80;37.40;;;;;;5080135;28;20193;-85
2021/04/26 06:21:56;;;;;;;8.27;4.47;;;10.00;35.60;;;;;;5087017;28;20201;-83
2021/04/26 06:24:25;;;;;;;4.80;4.15;;;10.00;35.90;;;;;;5074079;28;20683;-85
2021/04/26 06:26:53;;;;;;;7.63;4.30;;;9.90;37.50;;;;;;5077762;28;20193;-86
2021/04/26 06:29:37;;;;;;;6.07;4.03;;;9.90;37.40;;;;;;5077951;28;20270;-88
2021/04/26 06:32:04;;;;;;;8.02;4.20;;;9.90;37.20;;;;;;5078219;28;20228;-87
2021/04/26 06:38:11;;;;;;;6.40;4.00;;;9.30;38.40;;;;;;5063347;28;20267;-87
2021/04/26 06:47:27;;;;;;;6.07;4.10;;;9.30;39.40;;;;;;5063247;28;20225;-87
2021/04/26 06:49:55;;;;;;;7.13;4.47;;;9.40;39.00;;;;;;5076095;28;20201;-89
2021/04/26 06:52:21;;;;;;;6.50;3.87;;;9.60;38.70;;;;;;5074612;28;20250;-87
2021/04/26 06:54:47;;;;;;;10.77;4.13;;;9.80;41.10;;;;;;5082127;28;20199;-90
2021/04/26 06:57:14;;;;;;;7.88;4.22;;;9.80;39.90;;;;;;5079954;28;20639;-86
2021/04/26 06:59:41;;;;;;;8.07;4.18;;;9.90;38.20;;;;;;5080458;28;20259;-89
2021/04/26 07:02:07;;;;;;;9.45;4.30;;;9.90;37.40;;;;;;5082160;28;20686;-86
2021/04/26 07:04:36;;;;;;;6.78;4.30;;;9.70;37.70;;;;;;5085734;28;20217;-86
2021/04/26 07:07:03;;;;;;;9.80;4.32;;;10.20;35.70;;;;;;5081943;28;20339;-85
2021/04/26 07:09:29;;;;;;;6.35;4.00;;;10.60;35.70;;;;;;5082982;28;20193;-85
2021/04/26 07:11:58;;;;;;;7.43;4.30;;;11.00;35.40;;;;;;5085165;28;20215;-86
2021/04/26 07:14:24;;;;;;;9.38;4.10;;;10.90;34.70;;;;;;5074132;28;20229;-86
2021/04/26 07:20:10;;;;;;;7.22;3.80;;;11.00;33.80;;;;;;5084461;28;20205;-86
2021/04/26 07:22:37;;;;;;;9.18;4.75;;;11.50;32.10;;;;;;5077139;28;20236;-88
2021/04/26 07:25:07;;;;;;;9.48;4.30;;;11.20;32.40;;;;;;5080705;28;20221;-88
2021/04/26 07:27:34;;;;;;;6.72;3.92;;;11.00;33.20;;;;;;5077218;28;20233;-85
2021/04/26 07:30:00;;;;;;;8.38;4.05;;;10.90;35.10;;;;;;5069876;28;20213;-85
2021/04/26 07:32:27;;;;;;;7.15;3.85;;;11.10;33.20;;;;;;5087493;28;20232;-85
2021/04/26 07:35:17;;;;;;;10.32;4.55;;;11.50;32.10;;;;;;5070444;28;20250;-85
2021/04/26 07:37:52;;;;;;;5.80;4.10;;;11.60;32.10;;;;;;5085621;28;20636;-84
2021/04/26 07:40:24;;;;;;;5.45;4.20;;;11.80;33.10;;;;;;5082205;28;20279;-91
2021/04/26 07:42:51;;;;;;;9.00;4.40;;;11.70;31.90;;;;;;5078298;28;20225;-88
2021/04/26 07:45:20;;;;;;;6.97;3.97;;;11.80;32.10;;;;;;5080399;28;20247;-92
2021/04/26 07:47:47;;;;;;;8.27;4.07;;;12.00;31.40;;;;;;5085503;28;20220;-89
2021/04/26 07:50:23;;;;;;;6.28;4.30;;;12.00;31.50;;;;;;5086591;28;20205;-85
2021/04/26 07:52:50;;;;;;;9.07;4.20;;;12.00;32.80;;;;;;5066125;28;20585;-86
2021/04/26 07:55:19;;;;;;;7.28;4.20;;;12.10;31.80;;;;;;5072226;28;20212;-85
2021/04/26 07:57:45;;;;;;;5.60;3.92;;;12.10;31.00;;;;;;5087025;28;20309;-85
2021/04/26 08:00:13;;;;;;;10.77;4.28;;;12.20;29.60;;;;;;5105453;28;20281;-86
2021/04/26 08:02:40;;;;;;;5.88;4.00;;;12.40;29.70;;;;;;5101991;28;20228;-85
2021/04/26 08:05:07;;;;;;;8.45;3.75;;;12.30;29.70;;;;;;5102253;28;20211;-85
2021/04/26 08:11:03;;;;;;;7.38;4.32;;;12.00;30.40;;;;;;5102807;28;20235;-85
2021/04/26 08:13:31;;;;;;;7.65;4.40;;;11.20;32.00;;;;;;5083789;28;20254;-85
2021/04/26 08:15:58;;;;;;;5.05;3.80;;;11.50;32.00;;;;;;5082755;28;20284;-85
2021/04/26 08:28:44;;;;;;;10.10;4.15;;;12.70;29.30;;;;;;5084876;28;20209;-85
2021/04/26 08:31:10;;;;;;;9.32;4.00;;;12.80;28.30;;;;;;5082073;28;20200;-85
2021/04/26 08:54:08;;;;;;;12.77;4.82;;;15.40;28.20;;;;;;5072818;28;20603;-83
2021/04/26 08:56:35;;;;;;;6.18;4.38;;;15.50;28.30;;;;;;5083353;28;20265;-85
2021/04/26 08:59:02;;;;;;;8.52;4.82;;;16.70;25.60;;;;;;5099431;28;20307;-85
2021/04/26 09:01:34;;;;;;;8.77;4.80;;;17.60;22.70;;;;;;5105294;28;20193;-84
2021/04/26 09:04:10;;;;;;;10.70;4.55;;;18.70;21.40;;;;;;5103477;28;20228;-83
2021/04/26 09:07:10;;;;;;;7.03;4.20;;;20.40;19.40;;;;;;5090242;28;20551;-84
2021/04/26 09:10:03;;;;;;;6.43;4.22;;;22.50;14.80;;;;;;5062413;28;20209;-84
2021/04/26 09:12:32;;;;;;;8.35;4.78;;;23.40;13.20;;;;;;5063808;28;20229;-83
2021/04/26 09:15:04;;;;;;;7.80;4.78;;;23.00;14.10;;;;;;5071069;28;20208;-82
2021/04/26 09:17:35;;;;;;;7.47;4.82;;;21.60;16.70;;;;;;5066092;28;20224;-86
2021/04/26 09:20:21;;;;;;;8.52;4.72;;;22.60;15.30;;;;;;5068920;28;20660;-84
2021/04/26 09:22:49;;;;;;;8.07;4.65;;;22.80;15.00;;;;;;5077778;28;20629;-87
2021/04/26 09:25:29;;;;;;;5.72;4.68;;;23.00;15.10;;;;;;5079099;28;20224;-84
2021/04/26 09:27:58;;;;;;;7.95;4.85;;;23.30;13.10;;;;;;5072193;28;20227;-88
2021/04/26 09:30:47;;;;;;;7.07;4.57;;;24.20;13.70;;;;;;5064651;28;20206;-90
2021/04/26 09:33:37;;;;;;;9.48;4.60;;;23.50;13.20;;;;;;5065108;28;20232;-90
2021/04/26 09:36:16;;;;;;;9.93;3.67;;;24.40;13.00;;;;;;5072905;28;20311;-89
2021/04/26 09:38:47;;;;;;;8.75;3.97;;;23.90;13.50;;;;;;5071196;28;20224;-89
2021/04/26 09:41:23;;;;;;;7.63;4.03;;;24.30;12.20;;;;;;5062322;28;20692;-89
2021/04/26 09:44:07;;;;;;;8.70;4.28;;;24.30;11.70;;;;;;5061929;28;20229;-89
2021/04/26 09:46:43;;;;;;;7.13;4.63;;;24.30;12.10;;;;;;5065532;28;20330;-93
2021/04/26 09:49:11;;;;;;;8.25;4.43;;;24.30;11.80;;;;;;5064965;28;20699;-90
2021/04/26 09:51:37;;;;;;;9.27;4.60;;;23.60;13.30;;;;;;5061787;28;20201;-92
2021/04/26 09:54:05;;;;;;;7.40;4.65;;;23.70;13.40;;;;;;5071771;28;20263;-94
2021/04/26 09:56:59;;;;;;;10.48;4.72;;;23.40;13.20;;;;;;5059942;28;20311;-89
2021/04/26 09:59:26;;;;;;;4.80;3.97;;;24.20;11.20;;;;;;5064776;28;20225;-91
2021/04/26 10:04:40;;;;;;;5.32;4.25;;;23.20;13.00;;;;;;5068708;28;20366;-92
2021/04/26 10:07:07;;;;;;;5.53;4.20;;;24.00;12.50;;;;;;5068626;28;20664;-89
2021/04/26 10:09:33;;;;;;;5.22;4.18;;;23.90;13.10;;;;;;5076836;28;20566;-89
2021/04/26 10:12:00;;;;;;;7.70;4.80;;;24.30;11.50;;;;;;5079481;28;20201;-89
2021/04/26 10:14:28;;;;;;;6.75;4.13;;;24.20;12.70;;;;;;5070740;28;20597;-91
2021/04/26 10:20:07;;;;;;;5.72;4.03;;;24.60;13.90;;;;;;5057898;28;20197;-91
2021/04/26 10:22:39;;;;;;;7.28;4.55;;;23.90;13.50;;;;;;5067182;28;20239;-92
2021/04/26 10:25:07;;;;;;;6.07;4.70;;;24.80;11.50;;;;;;5060517;28;20300;-92
2021/04/26 10:27:37;;;;;;;9.90;4.60;;;24.20;13.70;;;;;;5062380;28;20232;-92
2021/04/26 10:30:07;;;;;;;11.13;4.70;;;23.20;13.00;;;;;;5059532;28;20221;-92
2021/04/26 10:32:55;;;;;;;8.80;4.65;;;23.40;13.20;;;;;;5072633;28;20307;-91
2021/04/26 10:35:22;;;;;;;7.00;4.65;;;23.40;13.20;;;;;;5060519;28;20202;-91
2021/04/26 10:37:49;;;;;;;9.10;4.65;;;23.30;13.10;;;;;;5048687;28;20223;-91
2021/04/26 10:40:19;;;;;;;6.47;4.60;;;23.10;13.00;;;;;;5074466;28;20197;-91
2021/04/26 10:43:10;;;;;;;9.30;4.50;;;22.60;12.60;;;;;;5056943;28;20582;-92
2021/04/26 10:48:20;;;;;;;9.05;4.72;;;22.20;13.00;;;;;;5070733;28;20224;-88
2021/04/26 10:50:51;;;;;;;6.78;4.35;;;22.10;13.80;;;;;;5061878;28;20200;-88
2021/04/26 10:53:17;;;;;;;4.85;4.35;;;20.90;14.60;;;;;;5062690;28;20242;-85
2021/04/26 10:55:54;;;;;;;8.65;4.68;;;21.40;15.50;;;;;;5075290;28;20233;-89
2021/04/26 10:58:34;;;;;;;9.10;4.88;;;20.10;17.20;;;;;;5075225;28;20238;-83
2021/04/26 11:01:02;;;;;;;5.95;4.20;;;20.60;15.90;;;;;;5067500;28;20212;-89
2021/04/26 11:03:45;;;;;;;11.15;4.70;;;21.00;14.20;;;;;;5068426;28;20221;-90
2021/04/26 11:06:28;;;;;;;5.22;4.28;;;19.10;16.80;;;;;;5074069;28;20684;-92
2021/04/26 11:21:54;;;;;;;12.20;4.18;;;17.60;17.70;;;;;;5090797;28;20208;-96
2021/04/26 11:25:13;;;;;;;7.50;3.92;;;17.20;18.00;;;;;;5077306;28;20284;-96
2021/04/26 11:27:54;;;;;;;9.00;4.10;;;17.20;18.50;;;;;;5055991;28;20608;-91
2021/04/26 11:30:23;;;;;;;9.55;4.10;;;17.30;17.40;;;;;;5090590;28;20190;-94
2021/04/26 11:35:35;;;;;;;5.68;4.35;;;17.10;18.40;;;;;;5221242;22;21120;-94
2021/04/26 11:41:02;;;;;;;8.00;3.78;;;16.70;18.90;;;;;;5067080;28;20664;-94
2021/04/26 11:47:02;;;;;;;5.85;3.90;;;16.10;18.10;;;;;;5009492;28;20718;-93
2021/04/26 11:49:34;;;;;;;6.28;3.88;;;16.00;19.60;;;;;;5004686;28;20692;-94
2021/04/26 11:52:01;;;;;;;5.85;4.43;;;16.30;19.00;;;;;;5035542;28;20202;-94
2021/04/26 11:54:29;;;;;;;6.47;4.20;;;16.50;18.00;;;;;;5044863;28;20199;-94
2021/04/26 11:57:29;;;;;;;5.88;4.00;;;16.40;18.30;;;;;;5039052;28;20207;-95
2021/04/26 12:00:07;;;;;;;4.55;3.83;;;16.00;18.40;;;;;;5050278;28;20212;-94
2021/04/26 12:05:33;;;;;;;7.97;3.97;;;16.30;17.70;;;;;;5012546;28;20275;-94
2021/04/26 12:08:00;;;;;;;7.82;3.42;;;16.20;17.50;;;;;;5037486;28;20226;-94
2021/04/26 12:13:32;;;;;;;4.53;3.15;;;16.10;16.60;;;;;;5016991;28;20190;-93
2021/04/26 12:15:59;;;;;;;6.53;3.63;;;16.00;17.50;;;;;;5055570;28;20261;-93
2021/04/26 12:34:15;;;;;;;7.82;4.00;;;15.70;20.30;;;;;;5042532;28;20218;-87
2021/04/26 12:54:38;;;;;;;6.53;4.30;;;15.90;19.40;;;;;;5021325;28;20203;-91
2021/04/26 13:04:43;;;;;;;5.43;3.95;;;15.70;18.20;;;;;;5097963;28;20181;-93
2021/04/26 13:14:46;;;;;;;5.53;4.00;;;16.00;18.40;;;;;;4997577;28;20234;-93
2021/04/26 13:17:12;;;;;;;7.63;4.05;;;15.80;17.60;;;;;;5049872;28;20232;-94
2021/04/26 13:19:42;;;;;;;4.88;3.65;;;15.90;17.80;;;;;;5077967;28;20579;-95
2021/04/26 13:22:23;;;;;;;5.47;3.50;;;15.90;17.10;;;;;;5078218;28;20221;-93
2021/04/26 13:27:42;;;;;;;5.10;3.78;;;15.90;17.10;;;;;;5066102;27;20205;-93
2021/04/26 13:32:53;;;;;;;5.72;3.65;;;15.50;17.60;;;;;;5060226;28;20209;-93
2021/04/26 13:51:55;;;;;;;7.45;4.20;;;15.20;17.80;;;;;;5024508;28;20208;-94
2021/04/26 16:03:04;;;;;;;5.10;4.32;;;14.70;19.40;;;;;;5004512;28;20223;-92
2021/04/26 16:05:31;;;;;;;5.43;4.30;;;14.70;19.60;;;;;;5037989;28;20695;-93
2021/04/26 16:08:06;;;;;;;8.45;4.40;;;14.70;19.00;;;;;;5080263;28;20621;-92
2021/04/26 16:10:34;;;;;;;8.80;4.30;;;14.60;18.60;;;;;;5075701;28;20253;-92
2021/04/26 16:18:24;;;;;;;5.60;4.25;;;14.60;19.30;;;;;;5078459;28;20614;-92
2021/04/26 16:20:50;;;;;;;6.15;4.28;;;14.60;18.90;;;;;;5068498;28;20214;-92
2021/04/26 16:23:17;;;;;;;6.00;4.53;;;14.60;19.30;;;;;;5074517;28;20232;-92
2021/04/26 16:25:44;;;;;;;7.80;4.50;;;14.60;19.00;;;;;;5076040;28;20708;-92
2021/04/26 16:28:10;;;;;;;6.80;4.40;;;14.50;19.00;;;;;;5072773;28;20248;-91
2021/04/26 16:30:36;;;;;;;9.70;4.43;;;14.40;19.40;;;;;;5081252;28;20211;-92
2021/04/26 16:33:03;;;;;;;7.13;4.20;;;14.40;19.60;;;;;;5081039;28;20224;-91
2021/04/26 16:35:30;;;;;;;7.35;4.20;;;14.30;19.40;;;;;;5082572;28;20197;-92
2021/04/26 16:37:56;;;;;;;6.90;4.38;;;14.30;19.70;;;;;;5092498;28;20225;-93
2021/04/26 16:40:23;;;;;;;6.05;4.25;;;14.20;19.70;;;;;;5080065;28;20670;-92
2021/04/26 16:42:50;;;;;;;6.07;4.20;;;14.10;19.70;;;;;;5066065;28;20244;-92
2021/04/26 16:45:17;;;;;;;6.57;4.35;;;14.20;19.80;;;;;;5073855;28;20229;-92
2021/04/26 16:47:44;;;;;;;8.25;4.10;;;14.20;19.30;;;;;;5085199;28;20711;-92
2021/04/26 16:50:12;;;;;;;7.05;4.60;;;14.10;19.10;;;;;;5079676;28;20232;-92
2021/04/26 16:52:39;;;;;;;5.82;4.30;;;14.10;19.90;;;;;;5086519;28;20240;-91
2021/04/26 16:57:48;;;;;;;5.30;4.60;;;13.90;20.90;;;;;;5084171;27;20235;-92
2021/04/26 17:00:31;;;;;;;5.82;4.53;;;13.90;20.90;;;;;;5085337;28;20240;-90
2021/04/26 17:06:37;;;;;;;6.85;4.28;;;13.80;20.90;;;;;;5088409;28;20208;-91
2021/04/26 17:12:11;;;;;;;9.45;4.40;;;13.70;21.20;;;;;;5071810;28;20229;-93
2021/04/26 17:14:38;;;;;;;7.18;4.40;;;13.60;21.20;;;;;;5074040;28;20644;-91
2021/04/26 17:17:04;;;;;;;7.13;4.80;;;13.50;22.80;;;;;;5074029;28;20289;-92
2021/04/26 17:22:53;;;;;;;7.72;4.20;;;13.50;21.30;;;;;;5659371;22;20248;-92
2021/04/26 17:33:21;;;;;;;6.25;3.88;;;13.20;20.90;;;;;;5101679;27;20250;-92
2021/04/26 17:35:48;;;;;;;7.57;4.57;;;13.20;20.90;;;;;;5101729;28;20224;-92
2021/04/26 17:38:14;;;;;;;6.63;4.35;;;13.10;21.30;;;;;;5100579;28;20276;-92
2021/04/26 17:40:41;;;;;;;6.75;4.28;;;13.10;21.50;;;;;;5102372;28;20214;-93
2021/04/26 17:43:08;;;;;;;9.60;5.20;;;13.00;21.70;;;;;;5405822;22;20223;-91
2021/04/26 17:46:12;;;;;;;8.20;4.35;;;12.90;21.70;;;;;;5063101;28;20708;-91
2021/04/26 18:20:32;;;;;;;8.82;5.22;;;12.10;25.40;;;;;;5342011;22;20224;-90
2021/04/26 18:22:59;;;;;;;6.85;4.80;;;12.10;25.40;;;;;;5094840;28;20211;-87
2021/04/26 18:25:36;;;;;;;12.15;5.47;;;12.00;25.40;;;;;;5093044;28;20215;-87
2021/04/26 18:28:03;;;;;;;8.18;5.35;;;12.00;25.30;;;;;;5097456;28;20294;-89
2021/04/26 18:30:30;;;;;;;9.48;5.65;;;11.90;25.20;;;;;;5112762;28;20629;-87
2021/04/26 18:32:56;;;;;;;8.50;5.63;;;11.80;25.10;;;;;;5116094;28;20234;-87
2021/04/26 18:35:23;;;;;;;11.85;5.82;;;11.80;25.20;;;;;;5121020;28;20192;-87
2021/04/26 18:37:50;;;;;;;7.45;5.30;;;11.70;25.40;;;;;;5120767;28;20224;-89
2021/04/26 18:40:17;;;;;;;11.50;5.15;;;11.60;26.30;;;;;;5112744;28;20637;-88
2021/04/26 18:42:44;;;;;;;10.13;5.28;;;11.60;26.80;;;;;;5111699;28;20227;-88
2021/04/26 18:45:13;;;;;;;8.32;5.68;;;11.50;26.60;;;;;;5118340;28;20223;-88
2021/04/26 18:47:40;;;;;;;9.93;5.43;;;11.40;28.00;;;;;;5111723;28;20742;-88
2021/04/26 18:50:08;;;;;;;7.90;6.50;;;11.30;28.10;;;;;;5117454;28;20674;-87
2021/04/26 18:52:36;;;;;;;11.65;6.00;;;11.20;28.30;;;;;;5114869;27;20262;-87
2021/04/26 18:55:03;;;;;;;8.63;5.43;;;11.10;28.20;;;;;;5120505;28;21050;-88